Time;durP1;ratioP1;P1;durP2;ratioP2;P2;SDS_P1;SDS_P2;PMS_P1;PMS_P2;Temp;Humidity;BMP_temperature;BMP_pressure;BME280_temperature;BME280_humidity;BME280_pressure;Samples;Min_cycle;Max_cycle;Signal;HPM_P1;HPM_P2
2021/09/08 00:00:25;;;;;;;23.30;14.80;;;16.00;99.90;;;;;;4955131;29;20039;-78
2021/09/08 00:02:51;;;;;;;22.50;14.55;;;15.90;99.90;;;;;;4948057;29;20114;-78
2021/09/08 00:05:17;;;;;;;22.15;15.40;;;15.90;99.90;;;;;;4945945;28;20480;-78
2021/09/08 00:07:42;;;;;;;24.73;17.33;;;15.80;99.90;;;;;;4944418;29;20034;-78
2021/09/08 00:10:09;;;;;;;23.38;14.93;;;15.80;99.90;;;;;;4952773;28;20391;-78
2021/09/08 00:12:37;;;;;;;22.58;15.35;;;15.70;99.90;;;;;;4954520;28;20039;-78
2021/09/08 00:15:04;;;;;;;23.73;15.15;;;15.70;99.90;;;;;;4946480;28;20399;-78
2021/09/08 00:17:30;;;;;;;22.55;15.50;;;15.60;99.90;;;;;;4956131;29;20035;-78
2021/09/08 00:19:56;;;;;;;26.88;16.52;;;15.60;99.90;;;;;;4953477;28;20758;-78
2021/09/08 00:22:21;;;;;;;27.17;16.63;;;15.60;99.90;;;;;;4951053;28;20073;-78
2021/09/08 00:24:47;;;;;;;27.58;16.58;;;15.60;99.90;;;;;;4954595;28;20039;-77
2021/09/08 00:27:12;;;;;;;23.75;15.85;;;15.50;99.90;;;;;;4953413;29;20101;-78
2021/09/08 00:29:38;;;;;;;23.45;16.33;;;15.50;99.90;;;;;;4951837;29;20042;-78
2021/09/08 00:32:03;;;;;;;23.88;15.82;;;15.50;99.90;;;;;;4948195;28;20028;-78
2021/09/08 00:34:29;;;;;;;26.48;16.25;;;15.50;99.90;;;;;;4947781;28;20035;-78
2021/09/08 00:36:55;;;;;;;24.40;16.02;;;15.50;99.90;;;;;;4952618;29;20420;-78
2021/09/08 00:39:21;;;;;;;23.00;16.35;;;15.40;99.90;;;;;;4950140;28;20114;-78
2021/09/08 00:41:47;;;;;;;26.58;17.52;;;15.40;99.90;;;;;;4950751;29;20489;-78
2021/09/08 00:44:14;;;;;;;28.42;17.83;;;15.40;99.90;;;;;;4948383;28;20086;-78
2021/09/08 00:46:42;;;;;;;26.80;16.52;;;15.40;99.90;;;;;;4953063;29;20502;-78
2021/09/08 00:49:08;;;;;;;24.25;16.20;;;15.30;99.90;;;;;;4955028;28;20055;-78
2021/09/08 00:51:34;;;;;;;27.30;17.10;;;15.40;99.90;;;;;;4952861;28;20023;-78
2021/09/08 00:54:00;;;;;;;26.48;18.00;;;15.40;99.90;;;;;;4951433;28;20051;-78
2021/09/08 00:56:28;;;;;;;29.90;18.98;;;15.30;99.90;;;;;;4952825;28;20823;-78
2021/09/08 00:58:54;;;;;;;28.50;19.10;;;15.30;99.90;;;;;;4953397;28;20039;-78
2021/09/08 01:01:20;;;;;;;25.20;16.95;;;15.30;99.90;;;;;;4950852;28;20106;-79
2021/09/08 01:03:49;;;;;;;29.83;17.80;;;15.30;99.90;;;;;;4950932;29;20191;-78
2021/09/08 01:06:14;;;;;;;24.95;17.52;;;15.30;99.90;;;;;;4952009;28;20034;-78
2021/09/08 01:08:40;;;;;;;30.30;18.35;;;15.40;99.90;;;;;;4953194;29;20110;-78
2021/09/08 01:11:06;;;;;;;27.38;18.48;;;15.30;99.90;;;;;;4952642;29;20054;-77
2021/09/08 01:13:32;;;;;;;28.77;18.20;;;15.30;99.90;;;;;;4950802;28;20399;-78
2021/09/08 01:16:05;;;;;;;28.60;19.35;;;15.40;99.90;;;;;;4952821;29;20038;-78
2021/09/08 01:18:31;;;;;;;29.52;19.52;;;15.40;99.90;;;;;;4953953;28;20039;-78
2021/09/08 01:20:57;;;;;;;25.75;17.35;;;15.40;99.90;;;;;;4953436;28;20439;-78
2021/09/08 01:23:23;;;;;;;29.55;19.40;;;15.40;99.90;;;;;;4951744;29;20057;-78
2021/09/08 01:25:49;;;;;;;26.33;17.42;;;15.40;99.90;;;;;;4953229;29;20169;-79
2021/09/08 01:28:14;;;;;;;27.00;18.02;;;15.40;99.90;;;;;;4952746;29;20214;-78
2021/09/08 01:30:43;;;;;;;29.52;19.38;;;15.30;99.90;;;;;;4947451;28;20570;-78
2021/09/08 01:33:13;;;;;;;28.83;19.15;;;15.30;99.90;;;;;;4949853;28;21997;-78
2021/09/08 01:35:39;;;;;;;32.88;20.80;;;15.30;99.90;;;;;;4951731;29;20049;-78
2021/09/08 01:38:05;;;;;;;31.20;18.55;;;15.30;99.90;;;;;;4950267;28;20043;-78
2021/09/08 01:40:31;;;;;;;29.58;19.48;;;15.30;99.90;;;;;;4947659;28;20066;-78
2021/09/08 01:42:57;;;;;;;28.95;20.08;;;15.20;99.90;;;;;;4950035;29;20479;-78
2021/09/08 01:45:23;;;;;;;32.35;20.58;;;15.20;99.90;;;;;;4951505;28;20051;-80
2021/09/08 01:47:52;;;;;;;29.60;19.95;;;15.20;99.90;;;;;;4953148;28;20034;-78
2021/09/08 01:50:18;;;;;;;29.50;19.75;;;15.20;99.90;;;;;;4950821;29;20603;-78
2021/09/08 01:52:43;;;;;;;29.23;19.13;;;15.10;99.90;;;;;;4952632;29;20157;-78
2021/09/08 01:55:10;;;;;;;25.88;18.27;;;15.10;99.90;;;;;;4952228;28;20051;-78
2021/09/08 01:57:36;;;;;;;29.95;18.92;;;15.00;99.90;;;;;;4950014;29;20554;-78
2021/09/08 02:00:07;;;;;;;27.40;19.08;;;15.00;99.90;;;;;;4952521;28;20190;-78
2021/09/08 02:02:33;;;;;;;28.98;20.40;;;15.00;99.90;;;;;;4947911;28;20024;-78
2021/09/08 02:04:59;;;;;;;27.00;18.63;;;15.00;99.90;;;;;;4952692;28;20027;-79
2021/09/08 02:07:24;;;;;;;31.00;20.90;;;15.00;99.90;;;;;;4950109;28;20027;-78
2021/09/08 02:09:50;;;;;;;32.20;20.10;;;15.00;99.90;;;;;;4948686;28;20546;-77
2021/09/08 02:12:15;;;;;;;31.95;22.08;;;15.00;99.90;;;;;;4952078;28;20031;-78
2021/09/08 02:14:41;;;;;;;27.20;19.75;;;15.00;99.90;;;;;;4949006;29;20082;-78
2021/09/08 02:17:07;;;;;;;29.60;20.48;;;15.00;99.90;;;;;;4953008;29;20039;-78
2021/09/08 02:19:32;;;;;;;30.95;21.05;;;15.00;99.90;;;;;;4952558;29;20118;-78
2021/09/08 02:21:58;;;;;;;32.85;21.17;;;15.00;99.90;;;;;;4950015;29;20465;-78
2021/09/08 02:24:23;;;;;;;27.50;18.40;;;15.00;99.90;;;;;;4949600;28;20038;-76
2021/09/08 02:26:49;;;;;;;30.75;20.70;;;15.00;99.90;;;;;;4951465;28;20027;-76
2021/09/08 02:29:14;;;;;;;32.33;20.33;;;15.00;99.90;;;;;;4947944;29;20023;-76
2021/09/08 02:31:40;;;;;;;28.77;19.27;;;15.00;99.90;;;;;;4951143;28;20519;-76
2021/09/08 02:34:05;;;;;;;28.48;19.13;;;15.10;99.90;;;;;;4949327;28;20039;-79
2021/09/08 02:36:31;;;;;;;30.33;19.92;;;15.10;99.90;;;;;;4951760;29;20031;-78
2021/09/08 02:38:57;;;;;;;31.23;19.88;;;15.10;99.90;;;;;;4947068;29;20428;-78
2021/09/08 02:41:24;;;;;;;32.45;21.23;;;15.10;99.90;;;;;;4941754;28;20063;-79
2021/09/08 02:43:50;;;;;;;32.42;21.13;;;15.10;99.90;;;;;;4947006;28;20047;-77
2021/09/08 02:46:16;;;;;;;30.50;19.75;;;15.00;99.90;;;;;;4950338;28;20475;-76
2021/09/08 02:48:41;;;;;;;31.05;20.90;;;15.10;99.90;;;;;;4950337;28;20027;-75
2021/09/08 02:51:07;;;;;;;31.25;20.90;;;15.10;99.90;;;;;;4950806;29;20082;-76
2021/09/08 02:53:33;;;;;;;31.15;21.33;;;15.10;99.90;;;;;;4947550;28;20031;-76
2021/09/08 02:55:59;;;;;;;36.28;21.48;;;15.10;99.90;;;;;;4944568;28;20071;-76
2021/09/08 02:58:25;;;;;;;35.60;21.60;;;15.00;99.90;;;;;;4940872;29;20065;-76
2021/09/08 03:00:50;;;;;;;30.67;21.30;;;15.00;99.90;;;;;;4948963;28;20063;-76
2021/09/08 03:03:16;;;;;;;30.85;20.52;;;15.00;99.90;;;;;;4949211;29;20345;-76
2021/09/08 03:05:41;;;;;;;31.00;20.67;;;14.90;99.90;;;;;;4952296;28;20037;-75
2021/09/08 03:08:07;;;;;;;31.35;21.42;;;14.90;99.90;;;;;;4950369;28;20023;-76
2021/09/08 03:10:34;;;;;;;31.90;20.40;;;14.90;99.90;;;;;;4947437;28;20032;-77
2021/09/08 03:13:00;;;;;;;34.03;21.88;;;14.90;99.90;;;;;;4949845;29;20390;-76
2021/09/08 03:15:25;;;;;;;33.58;20.77;;;14.80;99.90;;;;;;4951437;29;20042;-76
2021/09/08 03:17:51;;;;;;;29.08;20.08;;;14.80;99.90;;;;;;4950244;28;20023;-77
2021/09/08 03:20:16;;;;;;;30.40;20.92;;;14.80;99.90;;;;;;4948497;29;20404;-77
2021/09/08 03:22:42;;;;;;;34.13;21.52;;;14.70;99.90;;;;;;4948613;28;20043;-76
2021/09/08 03:25:09;;;;;;;30.95;19.92;;;14.70;99.90;;;;;;4952074;29;20016;-76
2021/09/08 03:27:34;;;;;;;37.60;22.40;;;14.70;99.90;;;;;;4950184;28;20094;-77
2021/09/08 03:30:00;;;;;;;33.53;22.63;;;14.70;99.90;;;;;;4952018;29;20031;-77
2021/09/08 03:32:25;;;;;;;32.08;21.95;;;14.70;99.90;;;;;;4942153;29;20023;-77
2021/09/08 03:34:51;;;;;;;32.47;22.77;;;14.60;99.90;;;;;;4949546;29;20522;-77
2021/09/08 03:37:16;;;;;;;33.38;21.50;;;14.60;99.90;;;;;;4950167;29;20084;-77
2021/09/08 03:39:42;;;;;;;33.03;21.35;;;14.60;99.90;;;;;;4949364;28;20512;-76
2021/09/08 03:42:08;;;;;;;34.03;22.33;;;14.60;99.90;;;;;;4951153;28;20057;-77
2021/09/08 03:44:33;;;;;;;37.38;22.90;;;14.60;99.90;;;;;;4949038;28;20418;-77
2021/09/08 03:46:59;;;;;;;39.53;24.25;;;14.60;99.90;;;;;;4950936;29;20042;-77
2021/09/08 03:49:24;;;;;;;38.17;22.63;;;14.60;99.90;;;;;;4949994;29;20099;-77
2021/09/08 03:51:50;;;;;;;38.25;25.25;;;14.60;99.90;;;;;;4941024;28;20370;-77
2021/09/08 03:54:15;;;;;;;36.80;23.08;;;14.60;99.90;;;;;;4947067;28;20110;-77
2021/09/08 03:56:41;;;;;;;34.65;23.88;;;14.70;99.90;;;;;;4955647;28;20031;-77
2021/09/08 03:59:06;;;;;;;39.88;24.60;;;14.60;99.90;;;;;;4953186;29;20050;-77
2021/09/08 04:01:32;;;;;;;35.45;22.83;;;14.60;99.90;;;;;;4951241;28;20396;-77
2021/09/08 04:03:58;;;;;;;35.17;22.70;;;14.60;99.90;;;;;;4967540;28;20059;-77
2021/09/08 04:06:23;;;;;;;35.13;23.30;;;14.60;99.90;;;;;;4954947;28;20110;-76
2021/09/08 04:08:49;;;;;;;40.58;24.70;;;14.50;99.90;;;;;;4949696;28;20078;-77
2021/09/08 04:11:15;;;;;;;37.42;24.10;;;14.60;99.90;;;;;;4966801;28;20498;-76
2021/09/08 04:13:40;;;;;;;34.47;22.75;;;14.50;99.90;;;;;;4953873;29;20110;-77
2021/09/08 04:16:06;;;;;;;35.55;22.70;;;14.40;99.90;;;;;;4950049;29;20054;-77
2021/09/08 04:18:31;;;;;;;36.42;23.13;;;14.40;99.90;;;;;;4951301;28;20034;-78
2021/09/08 04:20:57;;;;;;;36.03;24.13;;;14.40;99.90;;;;;;4952234;29;20031;-78
2021/09/08 04:23:22;;;;;;;33.30;22.27;;;14.40;99.90;;;;;;4950931;28;20130;-77
2021/09/08 04:25:48;;;;;;;41.08;24.23;;;14.40;99.90;;;;;;4954208;29;20035;-77
2021/09/08 04:28:13;;;;;;;39.28;23.65;;;14.30;99.90;;;;;;4952052;28;20118;-77
2021/09/08 04:30:39;;;;;;;37.25;24.13;;;14.30;99.90;;;;;;4953686;29;20113;-77
2021/09/08 04:33:05;;;;;;;34.53;22.80;;;14.20;99.90;;;;;;4953753;29;20403;-76
2021/09/08 04:35:30;;;;;;;35.65;23.05;;;14.20;99.90;;;;;;4955272;29;20051;-77
2021/09/08 04:37:56;;;;;;;38.13;24.23;;;14.20;99.90;;;;;;4949365;29;20038;-77
2021/09/08 04:40:22;;;;;;;37.58;23.42;;;14.10;99.90;;;;;;4950710;29;20026;-77
2021/09/08 04:42:47;;;;;;;35.83;24.10;;;14.10;99.90;;;;;;4952742;28;20498;-77
2021/09/08 04:45:13;;;;;;;36.60;23.92;;;14.10;99.90;;;;;;4950299;29;20051;-78
2021/09/08 04:47:38;;;;;;;33.55;22.90;;;14.10;99.90;;;;;;4951891;28;20499;-77
2021/09/08 04:50:06;;;;;;;33.60;22.77;;;14.10;99.90;;;;;;4954424;29;20506;-77
2021/09/08 04:52:32;;;;;;;37.00;24.58;;;14.10;99.90;;;;;;4953255;29;20499;-76
2021/09/08 04:54:58;;;;;;;35.35;22.30;;;14.10;99.90;;;;;;4954593;28;20509;-75
2021/09/08 04:57:24;;;;;;;38.20;24.90;;;14.10;99.90;;;;;;4948294;29;20024;-76
2021/09/08 04:59:49;;;;;;;35.20;23.83;;;14.20;99.90;;;;;;4952367;29;20051;-78
2021/09/08 05:02:15;;;;;;;36.53;24.30;;;14.10;99.90;;;;;;4949676;28;20062;-77
2021/09/08 05:04:41;;;;;;;36.08;22.98;;;14.20;99.90;;;;;;4953112;28;20127;-77
2021/09/08 05:07:06;;;;;;;38.30;24.50;;;14.10;99.90;;;;;;4951521;29;20035;-76
2021/09/08 05:09:32;;;;;;;36.00;23.60;;;14.10;99.90;;;;;;4951678;29;20035;-77
2021/09/08 05:11:57;;;;;;;35.15;22.75;;;14.10;99.90;;;;;;4952667;28;20062;-77
2021/09/08 05:14:23;;;;;;;41.78;25.70;;;14.10;99.90;;;;;;4949967;28;20043;-77
2021/09/08 05:16:48;;;;;;;38.65;24.75;;;14.10;99.90;;;;;;4946481;28;20051;-77
2021/09/08 05:19:14;;;;;;;44.80;24.55;;;14.10;99.90;;;;;;4949714;29;20035;-77
2021/09/08 05:21:39;;;;;;;39.45;24.90;;;14.10;99.90;;;;;;4949701;28;20090;-77
2021/09/08 05:24:05;;;;;;;33.75;22.83;;;14.10;99.90;;;;;;4946718;29;20531;-77
2021/09/08 05:26:31;;;;;;;37.97;23.17;;;14.10;99.90;;;;;;4944013;28;20032;-77
2021/09/08 05:28:56;;;;;;;37.22;23.13;;;14.10;99.90;;;;;;4935831;29;20047;-76
2021/09/08 05:31:22;;;;;;;37.80;23.92;;;14.00;99.90;;;;;;4943665;29;20131;-76
2021/09/08 05:33:47;;;;;;;36.05;23.42;;;14.00;99.90;;;;;;4945718;28;20391;-76
2021/09/08 05:36:15;;;;;;;40.30;25.15;;;14.00;99.90;;;;;;4952523;29;20451;-76
2021/09/08 05:38:41;;;;;;;38.38;24.15;;;14.00;99.90;;;;;;4948171;28;20027;-78
2021/09/08 05:41:09;;;;;;;37.33;23.98;;;14.00;99.90;;;;;;4943636;28;20038;-76
2021/09/08 05:43:34;;;;;;;36.85;23.67;;;14.00;99.90;;;;;;4946721;29;20433;-76
2021/09/08 05:46:00;;;;;;;38.33;24.27;;;14.10;99.90;;;;;;4949983;28;20043;-76
2021/09/08 05:48:26;;;;;;;36.08;24.27;;;14.10;99.90;;;;;;4942312;29;20039;-77
2021/09/08 05:50:51;;;;;;;37.45;24.63;;;14.10;99.90;;;;;;4937286;29;20082;-77
2021/09/08 05:53:16;;;;;;;38.85;24.17;;;14.20;99.90;;;;;;4941902;28;20098;-76
2021/09/08 05:55:42;;;;;;;35.40;24.00;;;14.20;99.90;;;;;;4944301;28;20035;-77
2021/09/08 05:58:08;;;;;;;38.72;24.90;;;14.30;99.90;;;;;;4940838;28;20050;-76
2021/09/08 06:00:33;;;;;;;36.60;22.38;;;14.40;99.90;;;;;;4944838;28;20036;-77
2021/09/08 06:02:59;;;;;;;34.13;22.33;;;14.40;99.90;;;;;;4947712;29;20019;-76
2021/09/08 06:05:24;;;;;;;36.30;23.38;;;14.50;99.90;;;;;;4946465;29;20122;-76
2021/09/08 06:07:50;;;;;;;31.55;21.48;;;14.60;99.90;;;;;;4953645;28;20486;-77
2021/09/08 06:10:20;;;;;;;33.75;21.25;;;14.70;99.90;;;;;;4951621;28;20461;-76
2021/09/08 06:12:47;;;;;;;37.78;23.88;;;14.80;99.90;;;;;;4950773;29;20032;-76
2021/09/08 06:15:14;;;;;;;33.92;21.92;;;14.90;99.90;;;;;;4943809;28;20035;-76
2021/09/08 06:17:40;;;;;;;31.92;21.55;;;14.90;99.90;;;;;;4948427;28;20035;-76
2021/09/08 06:20:07;;;;;;;42.70;23.13;;;15.00;99.90;;;;;;4948962;29;20054;-78
2021/09/08 06:22:33;;;;;;;36.35;23.52;;;15.10;99.90;;;;;;4953550;29;20059;-78
2021/09/08 06:24:59;;;;;;;34.67;23.17;;;15.20;99.90;;;;;;4946972;29;20451;-77
2021/09/08 06:27:24;;;;;;;37.80;23.60;;;15.30;99.90;;;;;;4948457;29;20249;-78
2021/09/08 06:29:50;;;;;;;34.15;22.95;;;15.30;99.90;;;;;;4945132;28;20039;-78
2021/09/08 06:32:15;;;;;;;30.00;20.67;;;15.40;99.90;;;;;;4950133;28;20023;-76
2021/09/08 06:34:45;;;;;;;31.77;21.48;;;15.60;99.90;;;;;;4949939;29;20090;-75
2021/09/08 06:37:11;;;;;;;34.13;22.02;;;15.60;99.90;;;;;;4950088;28;20090;-76
2021/09/08 06:39:36;;;;;;;41.35;24.20;;;15.80;99.90;;;;;;4951503;29;20113;-76
2021/09/08 06:42:02;;;;;;;33.05;21.15;;;15.90;99.90;;;;;;4944002;28;20515;-77
2021/09/08 06:44:27;;;;;;;32.22;20.80;;;16.00;99.90;;;;;;4913331;28;1024258;-78
2021/09/08 06:46:53;;;;;;;31.10;20.48;;;16.10;99.90;;;;;;4946009;29;20102;-77
2021/09/08 06:49:19;;;;;;;30.27;19.40;;;16.20;99.90;;;;;;4942007;29;20031;-77
2021/09/08 06:51:45;;;;;;;34.22;21.05;;;16.30;99.90;;;;;;4950970;28;20028;-77
2021/09/08 06:54:11;;;;;;;31.88;21.77;;;16.50;99.90;;;;;;4948510;29;20047;-79
2021/09/08 06:56:36;;;;;;;32.83;20.88;;;16.60;99.90;;;;;;4946945;29;20122;-76
2021/09/08 06:59:02;;;;;;;28.35;19.45;;;16.70;99.90;;;;;;4936182;29;20164;-78
2021/09/08 07:01:28;;;;;;;31.25;20.20;;;16.80;99.90;;;;;;4944980;28;20036;-77
2021/09/08 07:03:53;;;;;;;31.13;20.50;;;16.90;99.90;;;;;;4939146;29;20091;-77
2021/09/08 07:06:23;;;;;;;28.23;18.77;;;17.00;99.90;;;;;;4944501;29;20031;-76
2021/09/08 07:08:52;;;;;;;27.77;19.55;;;17.10;99.90;;;;;;4951371;29;20031;-78
2021/09/08 07:11:19;;;;;;;29.05;18.80;;;17.30;99.90;;;;;;4954044;28;20558;-77
2021/09/08 07:13:46;;;;;;;31.08;19.98;;;17.40;99.90;;;;;;4951903;28;20053;-75
2021/09/08 07:16:11;;;;;;;26.33;18.15;;;17.60;99.90;;;;;;4948121;28;20023;-75
2021/09/08 07:18:38;;;;;;;25.35;18.55;;;17.70;99.90;;;;;;4942626;28;20381;-76
2021/09/08 07:21:04;;;;;;;29.42;18.63;;;17.80;99.90;;;;;;4947930;28;20034;-77
2021/09/08 07:23:30;;;;;;;24.45;17.15;;;18.00;99.70;;;;;;4941089;28;20087;-76
2021/09/08 07:25:56;;;;;;;26.27;17.83;;;18.10;99.50;;;;;;4948289;28;20027;-77
2021/09/08 07:28:22;;;;;;;22.60;17.05;;;18.20;99.30;;;;;;4946564;28;20027;-77
2021/09/08 07:30:53;;;;;;;25.42;17.40;;;18.40;99.20;;;;;;4954606;28;20109;-77
2021/09/08 07:33:22;;;;;;;25.48;18.35;;;18.50;99.00;;;;;;4944380;28;21137;-76
2021/09/08 07:35:48;;;;;;;21.73;16.20;;;18.60;98.80;;;;;;4949465;28;20423;-79
2021/09/08 07:38:18;;;;;;;21.88;16.35;;;18.70;98.70;;;;;;4957218;28;20027;-77
2021/09/08 07:40:44;;;;;;;25.15;16.20;;;18.90;98.40;;;;;;4939272;28;20111;-78
2021/09/08 07:43:10;;;;;;;20.00;14.20;;;19.00;98.10;;;;;;4946807;28;20031;-78
2021/09/08 07:45:36;;;;;;;22.45;15.18;;;19.10;97.80;;;;;;4949242;29;20065;-77
2021/09/08 07:48:02;;;;;;;21.38;15.30;;;19.20;97.50;;;;;;4950111;28;20035;-77
2021/09/08 07:50:27;;;;;;;24.50;16.13;;;19.40;97.40;;;;;;4952601;28;20030;-77
2021/09/08 07:52:53;;;;;;;21.77;14.93;;;19.50;97.10;;;;;;4949600;28;20023;-77
2021/09/08 07:55:19;;;;;;;16.08;12.05;;;19.60;96.80;;;;;;4950586;28;20046;-77
2021/09/08 07:57:44;;;;;;;16.42;11.23;;;19.70;96.20;;;;;;4938327;29;20028;-77
2021/09/08 08:00:10;;;;;;;13.57;9.80;;;19.80;95.60;;;;;;4952611;28;20038;-78
2021/09/08 08:02:51;;;;;;;16.85;11.15;;;19.90;95.40;;;;;;4945174;28;20484;-79
2021/09/08 08:05:17;;;;;;;15.68;9.63;;;20.10;95.10;;;;;;4946392;28;20044;-78
2021/09/08 08:07:44;;;;;;;12.75;9.80;;;20.20;94.70;;;;;;4952518;29;20028;-78
2021/09/08 08:10:11;;;;;;;16.70;9.27;;;20.40;94.40;;;;;;4950836;29;20403;-77
2021/09/08 08:12:37;;;;;;;12.68;8.88;;;20.50;93.90;;;;;;4942103;29;20118;-77
2021/09/08 08:15:04;;;;;;;15.10;8.98;;;20.60;94.10;;;;;;4947830;29;20124;-77
2021/09/08 08:17:30;;;;;;;18.83;10.57;;;20.80;93.50;;;;;;4949649;28;20049;-77
2021/09/08 08:19:55;;;;;;;12.55;8.63;;;20.80;93.10;;;;;;4951922;28;20045;-77
2021/09/08 08:22:21;;;;;;;14.52;8.27;;;21.00;93.00;;;;;;4953188;29;20031;-77
2021/09/08 08:24:46;;;;;;;14.30;8.38;;;21.10;92.80;;;;;;4952590;29;20480;-77
2021/09/08 08:27:12;;;;;;;14.13;9.05;;;21.20;92.50;;;;;;4954073;29;20035;-77
2021/09/08 08:29:38;;;;;;;12.48;8.57;;;21.30;91.90;;;;;;4943511;28;20054;-78
2021/09/08 08:32:04;;;;;;;14.75;9.10;;;21.40;91.70;;;;;;4937786;28;20035;-77
2021/09/08 08:34:30;;;;;;;12.07;8.32;;;21.50;91.50;;;;;;4945436;29;20036;-77
2021/09/08 08:36:56;;;;;;;13.02;9.02;;;21.60;91.20;;;;;;4946492;28;20027;-78
2021/09/08 08:39:22;;;;;;;13.25;8.68;;;21.70;91.10;;;;;;4944748;28;20031;-78
2021/09/08 08:41:48;;;;;;;12.52;8.40;;;21.80;90.70;;;;;;4952764;28;20027;-77
2021/09/08 08:44:18;;;;;;;13.82;8.77;;;21.90;90.80;;;;;;4944810;29;20046;-77
2021/09/08 08:46:43;;;;;;;13.38;9.63;;;22.00;90.40;;;;;;4940918;29;20054;-77
2021/09/08 08:49:09;;;;;;;12.23;8.98;;;22.10;90.30;;;;;;4948687;29;20485;-77
2021/09/08 08:51:34;;;;;;;15.00;9.50;;;22.20;90.00;;;;;;4953865;28;20028;-77
2021/09/08 08:54:00;;;;;;;12.98;8.18;;;22.30;89.10;;;;;;4950496;28;20050;-78
2021/09/08 08:56:26;;;;;;;15.15;8.73;;;22.40;88.70;;;;;;4952307;29;20035;-77
2021/09/08 08:58:53;;;;;;;12.23;8.52;;;22.40;88.10;;;;;;4952861;28;20837;-78
2021/09/08 09:01:24;;;;;;;13.43;7.88;;;22.50;88.40;;;;;;4944596;28;20395;-78
2021/09/08 09:04:01;;;;;;;14.95;9.15;;;22.60;87.50;;;;;;4946557;29;20035;-78
2021/09/08 09:06:27;;;;;;;11.25;7.90;;;22.70;86.80;;;;;;4949620;29;20039;-78
2021/09/08 09:09:09;;;;;;;14.57;9.38;;;22.80;86.50;;;;;;4947219;28;20109;-78
2021/09/08 09:11:36;;;;;;;12.93;9.65;;;22.90;86.00;;;;;;4945328;28;20036;-78
2021/09/08 09:14:04;;;;;;;11.05;8.10;;;22.90;85.00;;;;;;4945098;29;20122;-78
2021/09/08 09:16:30;;;;;;;12.40;8.98;;;23.00;85.00;;;;;;4939406;29;20031;-78
2021/09/08 09:18:56;;;;;;;12.82;8.88;;;23.00;84.50;;;;;;4936552;29;20143;-78
2021/09/08 09:21:24;;;;;;;13.95;9.52;;;23.10;84.40;;;;;;4945540;28;20087;-78
2021/09/08 09:23:56;;;;;;;11.90;8.90;;;23.10;84.40;;;;;;4950002;29;20090;-78
2021/09/08 09:26:22;;;;;;;14.77;9.85;;;23.20;84.40;;;;;;4949907;28;20024;-78
2021/09/08 09:28:48;;;;;;;12.70;9.07;;;23.30;83.80;;;;;;4947752;29;20047;-78
2021/09/08 09:31:19;;;;;;;14.70;8.85;;;23.40;83.30;;;;;;4944286;29;20039;-77
2021/09/08 09:33:47;;;;;;;14.88;8.68;;;23.50;83.00;;;;;;4951011;28;20130;-78
2021/09/08 09:36:23;;;;;;;9.20;7.97;;;23.60;83.20;;;;;;4941495;29;20130;-77
2021/09/08 09:38:50;;;;;;;12.70;8.07;;;23.70;82.40;;;;;;4943661;29;20067;-78
2021/09/08 09:41:20;;;;;;;11.68;8.63;;;23.80;82.20;;;;;;4944147;28;20121;-78
2021/09/08 09:43:46;;;;;;;10.65;8.65;;;23.90;81.70;;;;;;4942619;29;20035;-78
2021/09/08 09:46:12;;;;;;;10.85;7.90;;;24.00;81.50;;;;;;4945144;28;20044;-78
2021/09/08 09:48:38;;;;;;;13.10;8.43;;;24.00;80.50;;;;;;4946558;29;20091;-78
2021/09/08 09:51:07;;;;;;;11.43;8.13;;;24.10;80.50;;;;;;4944684;28;20106;-78
2021/09/08 09:53:33;;;;;;;10.60;8.43;;;24.20;79.90;;;;;;4946225;28;20364;-78
2021/09/08 09:55:59;;;;;;;10.52;7.82;;;24.30;79.80;;;;;;4943120;29;20034;-78
2021/09/08 09:58:25;;;;;;;10.63;7.63;;;24.30;79.60;;;;;;4942599;28;20496;-78
2021/09/08 10:00:54;;;;;;;11.40;8.75;;;24.40;79.40;;;;;;4943286;28;20038;-78
2021/09/08 10:03:21;;;;;;;10.70;7.53;;;24.60;79.80;;;;;;4943687;29;20019;-77
2021/09/08 10:05:47;;;;;;;13.52;8.38;;;24.70;79.40;;;;;;4945992;29;20043;-78
2021/09/08 10:08:17;;;;;;;14.50;8.32;;;24.80;78.90;;;;;;4943530;28;20031;-78
2021/09/08 10:10:45;;;;;;;11.35;7.93;;;24.90;78.20;;;;;;4943966;29;20128;-77
2021/09/08 10:13:37;;;;;;;11.07;8.20;;;24.90;77.60;;;;;;4942870;29;20031;-78
2021/09/08 10:16:03;;;;;;;12.93;7.78;;;25.10;76.70;;;;;;4942169;29;20102;-79
2021/09/08 10:18:33;;;;;;;10.48;7.57;;;25.10;76.40;;;;;;4944549;28;20039;-78
2021/09/08 10:21:04;;;;;;;11.57;7.78;;;25.20;75.50;;;;;;4944417;28;20047;-77
2021/09/08 10:23:39;;;;;;;10.00;7.57;;;25.20;75.70;;;;;;4944072;28;20052;-77
2021/09/08 10:26:11;;;;;;;12.65;7.68;;;25.30;74.90;;;;;;4944645;29;20298;-78
2021/09/08 10:28:38;;;;;;;9.68;6.85;;;25.30;73.70;;;;;;4944320;29;20027;-78
2021/09/08 10:31:04;;;;;;;9.57;7.43;;;25.30;74.00;;;;;;4942101;29;20102;-79
2021/09/08 10:33:30;;;;;;;11.75;7.00;;;25.40;73.80;;;;;;4943804;29;20049;-78
2021/09/08 10:35:56;;;;;;;9.20;7.03;;;25.50;73.10;;;;;;4943217;29;20067;-77
2021/09/08 10:38:23;;;;;;;9.75;7.22;;;25.60;73.40;;;;;;4951611;28;20528;-78
2021/09/08 10:40:51;;;;;;;8.02;5.93;;;25.70;72.80;;;;;;4952162;28;20106;-78
2021/09/08 10:43:30;;;;;;;8.02;6.07;;;25.80;72.00;;;;;;4952561;28;20031;-79
2021/09/08 10:45:56;;;;;;;8.50;7.05;;;25.90;71.50;;;;;;4946501;29;20452;-78
2021/09/08 10:48:36;;;;;;;9.00;6.90;;;25.90;70.70;;;;;;4943995;29;20042;-78
2021/09/08 10:51:03;;;;;;;7.57;6.53;;;26.00;69.90;;;;;;4940640;29;20027;-78
2021/09/08 10:53:31;;;;;;;11.75;7.15;;;26.00;70.20;;;;;;4944258;28;20424;-78
2021/09/08 10:55:58;;;;;;;9.10;6.65;;;26.00;69.40;;;;;;4943899;29;20144;-78
2021/09/08 10:58:24;;;;;;;8.88;7.03;;;26.10;69.80;;;;;;4959884;28;20031;-81
2021/09/08 11:00:49;;;;;;;13.50;7.07;;;26.20;69.70;;;;;;4944794;28;20086;-79
2021/09/08 11:03:26;;;;;;;10.43;7.03;;;26.30;69.80;;;;;;4943665;29;20052;-80
2021/09/08 11:05:55;;;;;;;11.95;6.90;;;26.40;69.10;;;;;;4943210;29;20535;-80
2021/09/08 11:08:30;;;;;;;9.77;7.07;;;26.40;68.90;;;;;;4940716;28;20038;-80
2021/09/08 11:11:17;;;;;;;9.75;7.25;;;26.40;67.30;;;;;;4942829;29;20024;-80
2021/09/08 11:13:44;;;;;;;11.73;7.30;;;26.30;67.10;;;;;;4941364;28;20443;-80
2021/09/08 11:16:35;;;;;;;8.43;6.97;;;26.20;67.10;;;;;;4942692;29;20039;-78
2021/09/08 11:19:04;;;;;;;8.23;6.43;;;26.30;67.90;;;;;;4947535;28;20036;-79
2021/09/08 11:21:32;;;;;;;9.10;6.57;;;26.40;68.30;;;;;;4953745;29;20070;-81
2021/09/08 11:24:02;;;;;;;9.43;6.85;;;26.50;68.60;;;;;;4966993;28;20454;-80
2021/09/08 11:26:30;;;;;;;8.20;6.55;;;26.60;67.70;;;;;;4953157;29;20089;-81
2021/09/08 11:29:14;;;;;;;8.65;5.47;;;26.70;67.80;;;;;;4948801;29;20024;-81
2021/09/08 11:31:45;;;;;;;8.85;5.72;;;26.90;66.70;;;;;;4950533;29;20027;-82
2021/09/08 11:34:21;;;;;;;10.27;6.35;;;27.00;65.00;;;;;;4942056;29;20042;-82
2021/09/08 11:36:49;;;;;;;6.45;5.00;;;27.20;64.30;;;;;;4953935;28;20038;-81
2021/09/08 11:39:16;;;;;;;7.68;5.55;;;27.20;63.50;;;;;;4949714;28;20055;-81
2021/09/08 11:41:56;;;;;;;8.65;6.57;;;27.30;63.30;;;;;;4954303;28;20023;-81
2021/09/08 11:44:22;;;;;;;8.07;6.40;;;27.40;62.80;;;;;;4953862;29;20071;-81
2021/09/08 11:46:48;;;;;;;12.02;6.10;;;27.40;63.20;;;;;;4953922;28;20058;-81
2021/09/08 11:49:14;;;;;;;8.65;6.68;;;27.40;62.80;;;;;;4951643;28;20031;-81
2021/09/08 11:51:41;;;;;;;9.88;5.75;;;27.50;62.40;;;;;;4954337;29;20427;-82
2021/09/08 11:54:13;;;;;;;9.80;5.60;;;27.50;61.20;;;;;;4952641;28;20031;-82
2021/09/08 11:56:40;;;;;;;7.28;5.25;;;27.60;61.20;;;;;;4945567;29;20035;-81
2021/09/08 11:59:06;;;;;;;7.18;5.03;;;27.70;60.60;;;;;;4951950;29;20041;-81
2021/09/08 12:01:38;;;;;;;9.13;6.63;;;27.80;59.60;;;;;;4952902;29;20515;-81
2021/09/08 12:04:04;;;;;;;9.10;5.32;;;27.80;59.60;;;;;;4951862;28;20039;-80
2021/09/08 12:06:32;;;;;;;8.13;6.72;;;27.80;60.00;;;;;;4954655;28;20019;-81
2021/09/08 12:09:04;;;;;;;10.40;6.65;;;27.90;60.60;;;;;;4948859;28;20074;-81
2021/09/08 12:11:33;;;;;;;8.23;6.30;;;27.90;59.90;;;;;;4952213;28;20106;-80
2021/09/08 12:14:38;;;;;;;8.18;6.03;;;27.90;59.30;;;;;;4952804;28;20070;-82
2021/09/08 12:17:13;;;;;;;9.50;6.93;;;28.00;59.60;;;;;;4945191;28;20522;-81
2021/09/08 12:19:43;;;;;;;9.82;6.05;;;28.00;59.50;;;;;;4958086;29;20181;-81
2021/09/08 12:22:22;;;;;;;8.90;6.40;;;28.10;59.80;;;;;;4956998;29;20024;-81
2021/09/08 12:24:55;;;;;;;11.32;6.85;;;28.10;59.40;;;;;;4957004;28;20158;-81
2021/09/08 12:27:44;;;;;;;8.68;6.35;;;28.10;58.70;;;;;;4953417;29;20147;-81
2021/09/08 12:30:18;;;;;;;10.27;6.35;;;28.20;58.20;;;;;;4956501;28;20432;-81